createdAt,value
2017-01-23T00:00:14.326Z,-5.54
2017-01-23T00:00:54.929Z,-5.51
2017-01-23T00:01:35.543Z,-5.53
2017-01-23T00:02:16.138Z,-5.47
2017-01-23T00:02:56.706Z,-5.61
2017-01-23T00:03:37.360Z,-5.53
2017-01-23T00:04:17.965Z,-5.61
2017-01-23T00:04:58.539Z,-5.6
2017-01-23T00:05:39.120Z,-5.57
2017-01-23T00:06:19.771Z,-5.57
2017-01-23T00:07:00.346Z,-5.66
2017-01-23T00:07:41.048Z,-5.61
2017-01-23T00:08:21.700Z,-5.63
2017-01-23T00:09:02.272Z,-5.64
2017-01-23T00:09:42.934Z,-5.63
2017-01-23T00:10:23.658Z,-5.67
2017-01-23T00:11:04.232Z,-5.74
2017-01-23T00:11:45.887Z,-5.67
2017-01-23T00:12:26.489Z,-5.64
2017-01-23T00:13:07.092Z,-5.79
2017-01-23T00:13:47.766Z,-5.75
2017-01-23T00:14:28.402Z,-5.68
2017-01-23T00:15:09.080Z,-5.68
2017-01-23T00:15:49.703Z,-5.76
2017-01-23T00:16:30.353Z,-5.72
2017-01-23T00:17:11.007Z,-5.71
2017-01-23T00:17:51.667Z,-5.68
2017-01-23T00:18:32.312Z,-5.68
2017-01-23T00:19:12.918Z,-5.71
2017-01-23T00:19:53.516Z,-5.71
2017-01-23T00:20:35.083Z,-5.74
2017-01-23T00:21:16.661Z,-5.71
2017-01-23T00:21:57.319Z,-5.68
2017-01-23T00:22:37.996Z,-5.66
2017-01-23T00:23:18.649Z,-5.75
2017-01-23T00:23:59.302Z,-5.74
2017-01-23T00:24:39.954Z,-5.61
2017-01-23T00:25:20.620Z,-5.74
2017-01-23T00:26:01.248Z,-5.63
2017-01-23T00:26:41.914Z,-5.67
2017-01-23T00:27:22.567Z,-5.71
2017-01-23T00:28:03.220Z,-5.67
2017-01-23T00:28:43.878Z,-5.82
2017-01-23T00:29:24.452Z,-5.64
2017-01-23T00:30:05.050Z,-5.68
2017-01-23T00:30:45.624Z,-5.79
2017-01-23T00:31:26.276Z,-5.75
2017-01-23T00:32:06.863Z,-5.72
2017-01-23T00:32:47.459Z,-5.79
2017-01-23T00:33:28.009Z,-5.85
2017-01-23T00:34:08.612Z,-5.79
2017-01-23T00:34:49.259Z,-5.82
2017-01-23T00:35:29.878Z,-5.92
2017-01-23T00:36:10.540Z,-5.79
2017-01-23T00:36:51.192Z,-5.86
2017-01-23T00:37:31.845Z,-5.81
2017-01-23T00:38:12.499Z,-5.92
2017-01-23T00:38:53.151Z,-5.86
2017-01-23T00:39:33.790Z,-5.86
2017-01-23T00:40:14.353Z,-5.9
2017-01-23T00:40:55.007Z,-5.89
2017-01-23T00:41:35.643Z,-5.86
2017-01-23T00:42:16.205Z,-5.79
2017-01-23T00:42:56.863Z,-5.9
2017-01-23T00:43:37.499Z,-5.95
2017-01-23T00:44:18.580Z,-5.93
2017-01-23T00:45:00.253Z,-5.92
2017-01-23T00:45:40.907Z,-5.85
2017-01-23T00:46:21.576Z,-5.86
2017-01-23T00:47:03.193Z,-5.93
2017-01-23T00:47:43.786Z,-5.9
2017-01-23T00:48:24.420Z,-5.95
2017-01-23T00:49:06.097Z,-5.9
2017-01-23T00:49:46.648Z,-5.93
2017-01-23T00:50:27.331Z,-5.86
2017-01-23T00:51:08.427Z,-5.95
2017-01-23T00:51:49.730Z,-5.95
2017-01-23T00:52:30.301Z,-5.95
2017-01-23T00:53:10.948Z,-5.95
2017-01-23T00:53:52.462Z,-5.96
2017-01-23T00:54:33.113Z,-5.96
2017-01-23T00:55:13.779Z,-5.95
2017-01-23T00:55:54.419Z,-5.97
2017-01-23T00:56:35.082Z,-6.02
2017-01-23T00:57:16.748Z,-5.96
2017-01-23T00:57:57.399Z,-6.07
2017-01-23T00:58:38.054Z,-6
2017-01-23T00:59:18.617Z,-5.99
2017-01-23T00:59:59.227Z,-6.03
2017-01-23T01:00:39.862Z,-5.95
2017-01-23T01:01:20.419Z,-6.05
2017-01-23T01:02:01.072Z,-6
2017-01-23T01:02:41.714Z,-6.08
2017-01-23T01:03:22.280Z,-6.08
2017-01-23T01:04:02.944Z,-6.02
2017-01-23T01:04:44.580Z,-6.05
2017-01-23T01:05:25.262Z,-6.05
2017-01-23T01:06:05.923Z,-6.11
2017-01-23T01:06:46.570Z,-6.07
2017-01-23T01:07:27.224Z,-6.03
2017-01-23T01:08:08.900Z,-6.08
2017-01-23T01:08:50.575Z,-6.13
2017-01-23T01:09:31.236Z,-6.1
2017-01-23T01:10:11.885Z,-6.05
2017-01-23T01:10:52.537Z,-6.1
2017-01-23T01:11:33.190Z,-6.11
2017-01-23T01:12:13.836Z,-6.18
2017-01-23T01:12:54.492Z,-6.18
2017-01-23T01:13:35.142Z,-6.1
2017-01-23T01:14:15.798Z,-6.14
2017-01-23T01:14:56.449Z,-6.1
2017-01-23T01:15:37.101Z,-6.13
2017-01-23T01:16:17.754Z,-6.21
2017-01-23T01:16:58.416Z,-6.24
2017-01-23T01:17:40.107Z,-6.14
2017-01-23T01:18:20.725Z,-6.08
2017-01-23T01:19:03.334Z,-6.15
2017-01-23T01:19:43.989Z,-6.18
2017-01-23T01:20:25.681Z,-6.28
2017-01-23T01:21:06.324Z,-6.26
2017-01-23T01:21:46.971Z,-6.28
2017-01-23T01:22:27.624Z,-6.18
2017-01-23T01:23:08.324Z,-6.28
2017-01-23T01:23:48.938Z,-6.24
2017-01-23T01:24:31.539Z,-6.26
2017-01-23T01:25:12.183Z,-6.26
2017-01-23T01:25:53.689Z,-6.2
2017-01-23T01:26:34.308Z,-6.35
2017-01-23T01:27:14.946Z,-6.26
2017-01-23T01:27:55.624Z,-6.24
2017-01-23T01:28:36.295Z,-6.32
2017-01-23T01:29:16.919Z,-6.18
2017-01-23T01:29:58.515Z,-6.26
2017-01-23T01:30:39.154Z,-6.32
2017-01-23T01:31:19.797Z,-6.32
2017-01-23T01:32:00.481Z,-6.2
2017-01-23T01:32:41.098Z,-6.18
2017-01-23T01:33:21.766Z,-6.21
2017-01-23T01:34:02.410Z,-6.29
2017-01-23T01:34:43.987Z,-6.29
2017-01-23T01:35:24.636Z,-6.36
2017-01-23T01:36:05.297Z,-6.28
2017-01-23T01:36:45.953Z,-6.31
2017-01-23T01:37:26.596Z,-6.31
2017-01-23T01:38:07.266Z,-6.35
2017-01-23T01:38:47.910Z,-6.32
2017-01-23T01:39:28.575Z,-6.34
2017-01-23T01:40:09.209Z,-6.36
2017-01-23T01:40:49.880Z,-6.38
2017-01-23T01:41:30.514Z,-6.36
2017-01-23T01:42:12.203Z,-6.36
2017-01-23T01:42:52.845Z,-6.35
2017-01-23T01:43:33.510Z,-6.36
2017-01-23T01:44:14.169Z,-6.36
2017-01-23T01:44:54.857Z,-6.38
2017-01-23T01:45:35.456Z,-6.31
2017-01-23T01:46:16.025Z,-6.28
2017-01-23T01:46:56.657Z,-6.44
2017-01-23T01:47:38.285Z,-6.34
2017-01-23T01:48:18.884Z,-6.36
2017-01-23T01:48:59.440Z,-6.35
2017-01-23T01:49:40.108Z,-6.46
2017-01-23T01:50:20.796Z,-6.46
2017-01-23T01:51:01.386Z,-6.41
2017-01-23T01:51:41.937Z,-6.34
2017-01-23T01:52:22.591Z,-6.34
2017-01-23T01:53:04.218Z,-6.34
2017-01-23T01:53:44.818Z,-6.49
2017-01-23T01:54:25.392Z,-6.38
2017-01-23T01:55:06.049Z,-6.32
2017-01-23T01:55:46.622Z,-6.38
2017-01-23T01:56:27.328Z,-6.41
2017-01-23T01:57:07.900Z,-6.38
2017-01-23T01:57:48.539Z,-6.46
2017-01-23T01:58:29.133Z,-6.34
2017-01-23T01:59:09.739Z,-6.42
2017-01-23T01:59:50.327Z,-6.44
2017-01-23T02:00:30.945Z,-6.47
2017-01-23T02:01:11.552Z,-6.38
2017-01-23T02:01:52.242Z,-6.41
2017-01-23T02:02:32.812Z,-6.36
2017-01-23T02:03:13.474Z,-6.38
2017-01-23T02:03:54.055Z,-6.41
2017-01-23T02:04:34.647Z,-6.42
2017-01-23T02:05:15.190Z,-6.36
2017-01-23T02:05:55.876Z,-6.38
2017-01-23T02:06:36.454Z,-6.42
2017-01-23T02:07:17.060Z,-6.47
2017-01-23T02:07:57.635Z,-6.47
2017-01-23T02:08:38.262Z,-6.41
2017-01-23T02:09:18.858Z,-6.44
2017-01-23T02:09:59.464Z,-6.44
2017-01-23T02:10:40.020Z,-6.35
2017-01-23T02:11:20.686Z,-6.39
2017-01-23T02:12:01.266Z,-6.41
2017-01-23T02:12:42.890Z,-6.42
2017-01-23T02:13:23.439Z,-6.52
2017-01-23T02:14:04.106Z,-6.44
2017-01-23T02:14:44.756Z,-6.53
2017-01-23T02:15:25.409Z,-6.49
2017-01-23T02:16:06.059Z,-6.47
2017-01-23T02:16:46.814Z,-6.5
2017-01-23T02:17:27.463Z,-6.5
2017-01-23T02:18:08.114Z,-6.46
2017-01-23T02:18:48.771Z,-6.5
2017-01-23T02:19:29.337Z,-6.41
2017-01-23T02:20:09.979Z,-6.49
2017-01-23T02:20:50.573Z,-6.52
2017-01-23T02:21:31.282Z,-6.54
2017-01-23T02:22:11.831Z,-6.52
2017-01-23T02:22:52.502Z,-6.52
2017-01-23T02:23:33.085Z,-6.5
2017-01-23T02:24:14.267Z,-6.5
2017-01-23T02:24:54.777Z,-6.6
2017-01-23T02:25:35.410Z,-6.52
2017-01-23T02:26:15.979Z,-6.56
2017-01-23T02:26:56.613Z,-6.56
2017-01-23T02:27:37.364Z,-6.54
2017-01-23T02:28:18.890Z,-6.58
2017-01-23T02:28:59.502Z,-6.54
2017-01-23T02:29:40.142Z,-6.58
2017-01-23T02:30:20.683Z,-6.63
2017-01-23T02:31:01.354Z,-6.6
2017-01-23T02:31:41.999Z,-6.63
2017-01-23T02:32:22.660Z,-6.61
2017-01-23T02:33:03.316Z,-6.6
2017-01-23T02:33:43.980Z,-6.56
2017-01-23T02:34:24.655Z,-6.72
2017-01-23T02:35:05.260Z,-6.6
2017-01-23T02:35:45.834Z,-6.54
2017-01-23T02:36:26.510Z,-6.71
2017-01-23T02:37:07.190Z,-6.61
2017-01-23T02:37:47.763Z,-6.74
2017-01-23T02:38:28.335Z,-6.68
2017-01-23T02:39:08.998Z,-6.74
2017-01-23T02:39:49.674Z,-6.74
2017-01-23T02:40:31.303Z,-6.69
2017-01-23T02:41:11.854Z,-6.66
2017-01-23T02:41:52.522Z,-6.68
2017-01-23T02:42:33.923Z,-6.65
2017-01-23T02:43:14.520Z,-6.68
2017-01-23T02:43:55.159Z,-6.71
2017-01-23T02:44:35.748Z,-6.66
2017-01-23T02:45:16.384Z,-6.72
2017-01-23T02:45:56.992Z,-6.75
2017-01-23T02:46:37.602Z,-6.65
2017-01-23T02:47:18.334Z,-6.68
2017-01-23T02:47:58.906Z,-6.65
2017-01-23T02:48:39.582Z,-6.69
2017-01-23T02:49:20.198Z,-6.68
2017-01-23T02:50:00.851Z,-6.76
2017-01-23T02:50:41.511Z,-6.69
2017-01-23T02:51:22.239Z,-6.71
2017-01-23T02:52:02.811Z,-6.74
2017-01-23T02:52:43.455Z,-6.74
2017-01-23T02:53:24.108Z,-6.71
2017-01-23T02:54:04.768Z,-6.66
2017-01-23T02:54:46.548Z,-6.66
2017-01-23T02:55:27.202Z,-6.63
2017-01-23T02:56:07.855Z,-6.66
2017-01-23T02:56:48.507Z,-6.63
2017-01-23T02:57:29.160Z,-6.6
2017-01-23T02:58:11.759Z,-6.68
2017-01-23T02:58:52.463Z,-6.63
2017-01-23T02:59:33.897Z,-6.71
2017-01-23T03:00:14.620Z,-6.74
2017-01-23T03:00:55.249Z,-6.74
2017-01-23T03:01:35.979Z,-6.72
2017-01-23T03:02:16.617Z,-6.68
2017-01-23T03:02:57.268Z,-6.68
2017-01-23T03:03:37.925Z,-6.75
2017-01-23T03:04:18.648Z,-6.69
2017-01-23T03:04:59.166Z,-6.68
2017-01-23T03:05:40.786Z,-6.68
2017-01-23T03:06:21.349Z,-6.69
2017-01-23T03:07:02.009Z,-6.69
2017-01-23T03:07:42.596Z,-6.66
2017-01-23T03:08:23.191Z,-6.74
2017-01-23T03:09:03.746Z,-6.66
2017-01-23T03:09:44.446Z,-6.72
2017-01-23T03:10:25.315Z,-6.72
2017-01-23T03:11:05.805Z,-6.72
2017-01-23T03:11:46.462Z,-6.72
2017-01-23T03:12:28.088Z,-6.72
2017-01-23T03:13:08.742Z,-6.75
2017-01-23T03:13:49.339Z,-6.72
2017-01-23T03:14:29.990Z,-6.78
2017-01-23T03:15:10.644Z,-6.75
2017-01-23T03:15:51.296Z,-6.72
2017-01-23T03:16:32.976Z,-6.76
2017-01-23T03:17:13.624Z,-6.75
2017-01-23T03:17:54.335Z,-6.79
2017-01-23T03:18:34.934Z,-6.76
2017-01-23T03:19:15.507Z,-6.75
2017-01-23T03:19:56.144Z,-6.74
2017-01-23T03:20:37.780Z,-6.71
2017-01-23T03:21:18.372Z,-6.72
2017-01-23T03:21:58.954Z,-6.72
2017-01-23T03:22:39.585Z,-6.75
2017-01-23T03:23:20.173Z,-6.78
2017-01-23T03:24:00.773Z,-6.75
2017-01-23T03:24:41.326Z,-6.72
2017-01-23T03:25:21.986Z,-6.74
2017-01-23T03:26:02.582Z,-6.75
2017-01-23T03:26:43.182Z,-6.89
2017-01-23T03:27:23.731Z,-6.76
2017-01-23T03:28:04.402Z,-6.72
2017-01-23T03:28:46.017Z,-6.9
2017-01-23T03:29:26.610Z,-6.75
2017-01-23T03:30:07.195Z,-6.76
2017-01-23T03:30:47.829Z,-6.78
2017-01-23T03:31:28.418Z,-6.84
2017-01-23T03:32:09.016Z,-6.83
2017-01-23T03:32:49.806Z,-6.89
2017-01-23T03:33:32.390Z,-6.78
2017-01-23T03:34:12.975Z,-6.89
2017-01-23T03:34:53.683Z,-6.92
2017-01-23T03:35:34.334Z,-6.78
2017-01-23T03:36:15.025Z,-6.81
2017-01-23T03:36:55.589Z,-6.76
2017-01-23T03:37:36.189Z,-6.75
2017-01-23T03:38:16.755Z,-6.78
2017-01-23T03:38:58.219Z,-6.75
2017-01-23T03:39:38.814Z,-6.78
2017-01-23T03:40:19.416Z,-6.76
2017-01-23T03:40:59.997Z,-6.75
2017-01-23T03:41:40.642Z,-6.81
2017-01-23T03:42:21.220Z,-6.76
2017-01-23T03:43:01.823Z,-6.87
2017-01-23T03:43:42.385Z,-6.84
2017-01-23T03:44:23.038Z,-6.74
2017-01-23T03:45:03.700Z,-6.87
2017-01-23T03:45:44.382Z,-6.75
2017-01-23T03:46:25.078Z,-6.72
2017-01-23T03:47:05.657Z,-6.75
2017-01-23T03:47:46.315Z,-6.68
2017-01-23T03:48:26.965Z,-6.68
2017-01-23T03:49:09.550Z,-6.68
2017-01-23T03:49:50.223Z,-6.71
2017-01-23T03:50:31.878Z,-6.6
2017-01-23T03:51:12.543Z,-6.61
2017-01-23T03:51:53.195Z,-6.56
2017-01-23T03:52:33.877Z,-6.53
2017-01-23T03:53:14.514Z,-6.58
2017-01-23T03:53:55.157Z,-6.54
2017-01-23T03:54:35.737Z,-6.5
2017-01-23T03:55:17.367Z,-6.42
2017-01-23T03:55:57.960Z,-6.52
2017-01-23T03:56:38.575Z,-6.5
2017-01-23T03:57:19.174Z,-6.5
2017-01-23T03:57:59.775Z,-6.42
2017-01-23T03:58:40.351Z,-6.46
2017-01-23T03:59:20.986Z,-6.39
2017-01-23T04:00:01.605Z,-6.36
2017-01-23T04:00:42.277Z,-6.39
2017-01-23T04:01:22.851Z,-6.29
2017-01-23T04:02:04.198Z,-6.24
2017-01-23T04:02:44.816Z,-6.31
2017-01-23T04:03:26.429Z,-6.24
2017-01-23T04:04:07.010Z,-6.29
2017-01-23T04:04:47.642Z,-6.24
2017-01-23T04:05:28.298Z,-6.26
2017-01-23T04:06:08.986Z,-6.21
2017-01-23T04:06:50.644Z,-6.21
2017-01-23T04:07:31.298Z,-6.14
2017-01-23T04:08:11.936Z,-6.14
2017-01-23T04:08:52.612Z,-6.11
2017-01-23T04:09:34.275Z,-6.11
2017-01-23T04:10:14.959Z,-6.18
2017-01-23T04:10:55.756Z,-6.13
2017-01-23T04:11:36.428Z,-6.15
2017-01-23T04:12:17.081Z,-6.08
2017-01-23T04:12:57.751Z,-6.08
2017-01-23T04:13:38.398Z,-6.13
2017-01-23T04:14:19.038Z,-6.18
2017-01-23T04:14:59.697Z,-6.08
2017-01-23T04:15:40.382Z,-6.15
2017-01-23T04:16:21.015Z,-6.02
2017-01-23T04:17:02.699Z,-6.05
2017-01-23T04:17:43.331Z,-6.08
2017-01-23T04:18:24.092Z,-6.07
2017-01-23T04:19:04.823Z,-6.11
2017-01-23T04:19:45.325Z,-6.1
2017-01-23T04:20:25.922Z,-6.17
2017-01-23T04:21:06.493Z,-6.07
2017-01-23T04:21:47.152Z,-6.1
2017-01-23T04:22:27.735Z,-6.07
2017-01-23T04:23:08.330Z,-5.99
2017-01-23T04:23:48.908Z,-6.07
2017-01-23T04:24:29.565Z,-6.11
2017-01-23T04:25:10.212Z,-6.07
2017-01-23T04:25:50.864Z,-6.08
2017-01-23T04:26:31.519Z,-6.1
2017-01-23T04:27:12.169Z,-6.02
2017-01-23T04:27:52.807Z,-6.07
2017-01-23T04:28:33.487Z,-6.11
2017-01-23T04:29:14.131Z,-6.08
2017-01-23T04:29:54.773Z,-6.07
2017-01-23T04:30:36.091Z,-6.08
2017-01-23T04:31:16.703Z,-5.99
2017-01-23T04:31:57.347Z,-5.99
2017-01-23T04:32:38.008Z,-6
2017-01-23T04:33:18.673Z,-5.99
2017-01-23T04:33:59.314Z,-5.96
2017-01-23T04:34:39.903Z,-6.05
2017-01-23T04:35:20.498Z,-6.05
2017-01-23T04:36:01.060Z,-5.96
2017-01-23T04:36:41.727Z,-5.97
2017-01-23T04:37:22.406Z,-5.92
2017-01-23T04:38:03.009Z,-5.86
2017-01-23T04:38:43.580Z,-5.82
2017-01-23T04:39:24.223Z,-5.9
2017-01-23T04:40:04.888Z,-5.86
2017-01-23T04:40:45.534Z,-5.85
2017-01-23T04:41:26.264Z,-5.79
2017-01-23T04:42:06.839Z,-5.84
2017-01-23T04:42:47.493Z,-5.81
2017-01-23T04:43:29.174Z,-5.76
2017-01-23T04:44:09.816Z,-5.75
2017-01-23T04:44:51.476Z,-5.82
2017-01-23T04:45:32.832Z,-5.66
2017-01-23T04:46:13.435Z,-5.67
2017-01-23T04:46:54.059Z,-5.71
2017-01-23T04:47:34.615Z,-5.66
2017-01-23T04:48:15.269Z,-5.74
2017-01-23T04:48:55.914Z,-5.66
2017-01-23T04:49:36.474Z,-5.66
2017-01-23T04:50:17.140Z,-5.68
2017-01-23T04:50:57.785Z,-5.66
2017-01-23T04:51:38.445Z,-5.64
2017-01-23T04:52:19.114Z,-5.63
2017-01-23T04:52:59.749Z,-5.63
2017-01-23T04:53:40.391Z,-5.63
2017-01-23T04:54:21.039Z,-5.57
2017-01-23T04:55:01.693Z,-5.57
2017-01-23T04:55:42.233Z,-5.58
2017-01-23T04:56:22.903Z,-5.61
2017-01-23T04:57:03.544Z,-5.51
2017-01-23T04:57:44.110Z,-5.56
2017-01-23T04:58:24.756Z,-5.57
2017-01-23T04:59:05.404Z,-5.58
2017-01-23T04:59:46.055Z,-5.56
2017-01-23T05:00:26.705Z,-5.53
2017-01-23T05:01:07.356Z,-5.56
2017-01-23T05:01:48.015Z,-5.47
2017-01-23T05:02:28.666Z,-5.6
2017-01-23T05:03:10.338Z,-5.53
2017-01-23T05:03:51.013Z,-5.51
2017-01-23T05:04:31.574Z,-5.49
2017-01-23T05:05:14.174Z,-5.58
2017-01-23T05:05:54.816Z,-5.47
2017-01-23T05:06:35.374Z,-5.49
2017-01-23T05:07:16.031Z,-5.54
2017-01-23T05:07:57.679Z,-5.46
2017-01-23T05:08:38.248Z,-5.53
2017-01-23T05:09:18.914Z,-5.45
2017-01-23T05:10:00.560Z,-5.49
2017-01-23T05:10:41.125Z,-5.45
2017-01-23T05:11:22.846Z,-5.49
2017-01-23T05:12:03.485Z,-5.45
2017-01-23T05:12:44.088Z,-5.39
2017-01-23T05:13:24.701Z,-5.38
2017-01-23T05:14:05.309Z,-5.38
2017-01-23T05:14:45.901Z,-5.36
2017-01-23T05:15:26.498Z,-5.33
2017-01-23T05:16:07.064Z,-5.35
2017-01-23T05:16:47.711Z,-5.36
2017-01-23T05:17:28.314Z,-5.25
2017-01-23T05:18:08.903Z,-5.27
2017-01-23T05:18:49.469Z,-5.35
2017-01-23T05:19:30.127Z,-5.27
2017-01-23T05:20:10.711Z,-5.29
2017-01-23T05:20:51.310Z,-5.21
2017-01-23T05:21:31.897Z,-5.29
2017-01-23T05:22:12.529Z,-5.24
2017-01-23T05:22:53.112Z,-5.22
2017-01-23T05:23:33.718Z,-5.18
2017-01-23T05:24:14.301Z,-5.28
2017-01-23T05:24:55.011Z,-5.19
2017-01-23T05:25:35.537Z,-5.25
2017-01-23T05:26:16.124Z,-5.21
2017-01-23T05:26:56.685Z,-5.13
2017-01-23T05:27:37.343Z,-5.09
2017-01-23T05:28:17.940Z,-5.09
2017-01-23T05:28:58.539Z,-5.1
2017-01-23T05:29:39.105Z,-5.13
2017-01-23T05:30:19.769Z,-5.08
2017-01-23T05:31:00.443Z,-5
2017-01-23T05:31:41.068Z,-5.03
2017-01-23T05:32:21.613Z,-5.03
2017-01-23T05:33:02.278Z,-5.08
2017-01-23T05:33:42.959Z,-4.99
2017-01-23T05:34:23.551Z,-5.02
2017-01-23T05:35:04.117Z,-5.02
2017-01-23T05:35:44.767Z,-5.03
2017-01-23T05:36:25.434Z,-5
2017-01-23T05:37:07.085Z,-5.03
2017-01-23T05:37:47.776Z,-4.98
2017-01-23T05:38:29.479Z,-4.98
2017-01-23T05:39:10.083Z,-5
2017-01-23T05:39:50.715Z,-4.99
2017-01-23T05:40:31.281Z,-4.99
2017-01-23T05:41:11.930Z,-4.91
2017-01-23T05:41:52.576Z,-4.99
2017-01-23T05:42:33.136Z,-4.85
2017-01-23T05:43:13.788Z,-4.88
2017-01-23T05:43:54.442Z,-4.92
2017-01-23T05:44:35.003Z,-4.85
2017-01-23T05:45:15.660Z,-4.85
2017-01-23T05:45:56.309Z,-4.87
2017-01-23T05:46:36.962Z,-4.87
2017-01-23T05:47:17.619Z,-4.84
2017-01-23T05:47:58.255Z,-4.87
2017-01-23T05:48:38.908Z,-4.75
2017-01-23T05:49:19.572Z,-4.78
2017-01-23T05:50:00.160Z,-4.79
2017-01-23T05:50:40.837Z,-4.79
2017-01-23T05:51:21.305Z,-4.78
2017-01-23T05:52:01.975Z,-4.73
2017-01-23T05:52:42.665Z,-4.71
2017-01-23T05:53:23.267Z,-4.73
2017-01-23T05:54:03.833Z,-4.78
2017-01-23T05:54:44.478Z,-4.77
2017-01-23T05:55:25.119Z,-4.79
2017-01-23T05:56:05.668Z,-4.73
2017-01-23T05:56:46.345Z,-4.71
2017-01-23T05:57:26.931Z,-4.67
2017-01-23T05:58:07.492Z,-4.7
2017-01-23T05:58:48.083Z,-4.69
2017-01-23T05:59:29.755Z,-4.67
2017-01-23T06:00:11.425Z,-4.67
2017-01-23T06:00:53.011Z,-4.67
2017-01-23T06:01:33.665Z,-4.63
2017-01-23T06:02:14.320Z,-4.66
2017-01-23T06:02:54.969Z,-4.66
2017-01-23T06:03:35.618Z,-4.7
2017-01-23T06:04:17.290Z,-4.63
2017-01-23T06:04:57.852Z,-4.64
2017-01-23T06:05:38.522Z,-4.64
2017-01-23T06:06:19.109Z,-4.63
2017-01-23T06:06:59.701Z,-4.57
2017-01-23T06:07:40.272Z,-4.6
2017-01-23T06:08:20.924Z,-4.6
2017-01-23T06:09:02.533Z,-4.53
2017-01-23T06:09:43.127Z,-4.52
2017-01-23T06:10:23.707Z,-4.53
2017-01-23T06:11:04.364Z,-4.57
2017-01-23T06:11:44.948Z,-4.52
2017-01-23T06:12:25.544Z,-4.59
2017-01-23T06:13:06.128Z,-4.57
2017-01-23T06:13:46.786Z,-4.53
2017-01-23T06:14:27.451Z,-4.45
2017-01-23T06:15:08.070Z,-4.49
2017-01-23T06:15:48.661Z,-4.53
2017-01-23T06:16:29.279Z,-4.38
2017-01-23T06:17:09.861Z,-4.43
2017-01-23T06:17:50.462Z,-4.49
2017-01-23T06:18:31.025Z,-4.42
2017-01-23T06:19:11.720Z,-4.43
2017-01-23T06:19:52.315Z,-4.42
2017-01-23T06:20:32.884Z,-4.45
2017-01-23T06:21:13.541Z,-4.41
2017-01-23T06:21:55.142Z,-4.46
2017-01-23T06:22:35.746Z,-4.45
2017-01-23T06:23:16.388Z,-4.43
2017-01-23T06:23:56.972Z,-4.42
2017-01-23T06:24:37.561Z,-4.41
2017-01-23T06:25:18.165Z,-4.46
2017-01-23T06:25:58.827Z,-4.35
2017-01-23T06:26:39.485Z,-4.38
2017-01-23T06:27:20.126Z,-4.46
2017-01-23T06:28:00.788Z,-4.39
2017-01-23T06:28:41.437Z,-4.39
2017-01-23T06:29:22.110Z,-4.41
2017-01-23T06:30:02.742Z,-4.31
2017-01-23T06:30:43.320Z,-4.3
2017-01-23T06:31:23.940Z,-4.27
2017-01-23T06:32:04.629Z,-4.24
2017-01-23T06:32:45.333Z,-4.31
2017-01-23T06:33:25.885Z,-4.32
2017-01-23T06:34:06.587Z,-4.3
2017-01-23T06:34:47.240Z,-4.34
2017-01-23T06:35:27.902Z,-4.32
2017-01-23T06:36:08.550Z,-4.32
2017-01-23T06:36:49.211Z,-4.21
2017-01-23T06:37:29.852Z,-4.31
2017-01-23T06:38:10.506Z,-4.25
2017-01-23T06:38:51.162Z,-4.27
2017-01-23T06:39:31.835Z,-4.28
2017-01-23T06:40:12.468Z,-4.17
2017-01-23T06:40:53.128Z,-4.22
2017-01-23T06:41:33.769Z,-4.21
2017-01-23T06:42:14.423Z,-4.25
2017-01-23T06:42:55.077Z,-4.17
2017-01-23T06:43:35.737Z,-4.21
2017-01-23T06:44:16.384Z,-4.25
2017-01-23T06:44:57.035Z,-4.21
2017-01-23T06:45:37.690Z,-4.13
2017-01-23T06:46:18.346Z,-4.12
2017-01-23T06:46:58.992Z,-4.12
2017-01-23T06:47:39.648Z,-4.13
2017-01-23T06:48:20.299Z,-4.14
2017-01-23T06:49:00.960Z,-4.14
2017-01-23T06:49:41.609Z,-4.21
2017-01-23T06:50:22.346Z,-4.2
2017-01-23T06:51:02.973Z,-4.13
2017-01-23T06:51:43.615Z,-4.13
2017-01-23T06:52:24.292Z,-4.21
2017-01-23T06:53:04.945Z,-4.17
2017-01-23T06:53:45.589Z,-4.21
2017-01-23T06:54:26.245Z,-4.09
2017-01-23T06:55:06.936Z,-4.16
2017-01-23T06:55:47.634Z,-4.2
2017-01-23T06:56:28.183Z,-4.14
2017-01-23T06:57:10.896Z,-4.24
2017-01-23T06:57:51.589Z,-4.2
2017-01-23T06:58:32.292Z,-4.14
2017-01-23T06:59:12.861Z,-4.06
2017-01-23T06:59:53.506Z,-4.2
2017-01-23T07:00:34.207Z,-4.2
2017-01-23T07:01:14.911Z,-4.21
2017-01-23T07:01:55.476Z,-4.17
2017-01-23T07:02:36.124Z,-4.04
2017-01-23T07:03:16.825Z,-4.04
2017-01-23T07:03:57.521Z,-4.13
2017-01-23T07:04:38.089Z,-4.14
2017-01-23T07:05:18.735Z,-4.03
2017-01-23T07:05:59.430Z,-4.12
2017-01-23T07:06:40.132Z,-4.07
2017-01-23T07:07:20.681Z,-4.04
2017-01-23T07:08:01.349Z,-4.03
2017-01-23T07:08:42.040Z,-4.06
2017-01-23T07:09:22.741Z,-4.12
2017-01-23T07:10:03.321Z,-4.07
2017-01-23T07:10:43.976Z,-4.06
2017-01-23T07:11:24.615Z,-4.02
2017-01-23T07:12:05.252Z,-4.02
2017-01-23T07:12:45.919Z,-4.02
2017-01-23T07:13:27.598Z,-4.02
2017-01-23T07:14:08.255Z,-3.98
2017-01-23T07:14:48.908Z,-3.96
2017-01-23T07:15:29.596Z,-3.93
2017-01-23T07:16:10.295Z,-3.99
2017-01-23T07:16:50.855Z,-4.02
2017-01-23T07:17:31.508Z,-3.93
2017-01-23T07:18:12.204Z,-3.99
2017-01-23T07:18:52.915Z,-3.99
2017-01-23T07:19:33.479Z,-3.93
2017-01-23T07:20:14.127Z,-4.02
2017-01-23T07:20:54.792Z,-3.98
2017-01-23T07:21:35.429Z,-3.96
2017-01-23T07:22:16.086Z,-3.91
2017-01-23T07:22:56.728Z,-3.95
2017-01-23T07:23:37.372Z,-4.02
2017-01-23T07:24:18.021Z,-3.98
2017-01-23T07:24:58.692Z,-3.95
2017-01-23T07:25:39.384Z,-3.96
2017-01-23T07:26:20.088Z,-3.98
2017-01-23T07:27:00.660Z,-3.92
2017-01-23T07:27:41.312Z,-3.99
2017-01-23T07:28:22.006Z,-3.86
2017-01-23T07:29:02.704Z,-3.93
2017-01-23T07:29:43.280Z,-3.88
2017-01-23T07:30:24.985Z,-3.88
2017-01-23T07:31:05.690Z,-3.82
2017-01-23T07:31:47.367Z,-3.89
2017-01-23T07:32:30.073Z,-3.85
2017-01-23T07:33:10.710Z,-3.88
2017-01-23T07:33:52.415Z,-3.85
2017-01-23T07:34:33.055Z,-3.8
2017-01-23T07:35:14.744Z,-3.75
2017-01-23T07:35:55.442Z,-3.82
2017-01-23T07:36:36.151Z,-3.74
2017-01-23T07:37:16.787Z,-3.8
2017-01-23T07:37:57.445Z,-3.83
2017-01-23T07:38:38.145Z,-3.86
2017-01-23T07:39:18.760Z,-3.83
2017-01-23T07:40:00.627Z,-3.75
2017-01-23T07:40:41.332Z,-3.77
2017-01-23T07:41:21.882Z,-3.82
2017-01-23T07:42:02.584Z,-3.72
2017-01-23T07:42:43.265Z,-3.77
2017-01-23T07:43:23.833Z,-3.7
2017-01-23T07:44:04.562Z,-3.78
2017-01-23T07:44:45.191Z,-3.72
2017-01-23T07:45:25.754Z,-3.7
2017-01-23T07:46:06.411Z,-3.74
2017-01-23T07:46:47.108Z,-3.67
2017-01-23T07:47:28.826Z,-3.64
2017-01-23T07:48:09.388Z,-3.64
2017-01-23T07:48:50.025Z,-3.61
2017-01-23T07:49:30.742Z,-3.64
2017-01-23T07:50:11.433Z,-3.66
2017-01-23T07:50:51.983Z,-3.74
2017-01-23T07:51:32.667Z,-3.67
2017-01-23T07:52:13.352Z,-3.75
2017-01-23T07:52:54.047Z,-3.74
2017-01-23T07:53:34.602Z,-3.69
2017-01-23T07:54:16.286Z,-3.67
2017-01-23T07:54:56.986Z,-3.7
2017-01-23T07:55:37.688Z,-3.67
2017-01-23T07:56:18.246Z,-3.66
2017-01-23T07:56:58.995Z,-3.72
2017-01-23T07:57:39.705Z,-3.67
2017-01-23T07:58:20.407Z,-3.63
2017-01-23T07:59:00.972Z,-3.7
2017-01-23T07:59:41.652Z,-3.75
2017-01-23T08:00:23.381Z,-3.74
2017-01-23T08:01:03.952Z,-3.54
2017-01-23T08:01:45.632Z,-3.7
2017-01-23T08:02:26.367Z,-3.67
2017-01-23T08:03:06.937Z,-3.69
2017-01-23T08:03:47.589Z,-3.67
2017-01-23T08:04:28.224Z,-3.69
2017-01-23T08:05:08.791Z,-3.66
2017-01-23T08:05:49.445Z,-3.63
2017-01-23T08:06:31.166Z,-3.63
2017-01-23T08:07:11.871Z,-3.7
2017-01-23T08:07:52.429Z,-3.61
2017-01-23T08:08:33.136Z,-3.54
2017-01-23T08:09:13.784Z,-3.56
2017-01-23T08:09:54.367Z,-3.59
2017-01-23T08:10:34.936Z,-3.59
2017-01-23T08:11:15.582Z,-3.56
2017-01-23T08:11:56.285Z,-3.52
2017-01-23T08:12:36.976Z,-3.54
2017-01-23T08:13:17.526Z,-3.51
2017-01-23T08:13:59.100Z,-3.56
2017-01-23T08:14:39.709Z,-3.51
2017-01-23T08:15:20.412Z,-3.55
2017-01-23T08:16:01.061Z,-3.46
2017-01-23T08:16:41.726Z,-3.54
2017-01-23T08:17:22.371Z,-3.48
2017-01-23T08:18:03.153Z,-3.51
2017-01-23T08:18:43.876Z,-3.46
2017-01-23T08:19:24.635Z,-3.49
2017-01-23T08:20:05.183Z,-3.49
2017-01-23T08:20:45.878Z,-3.48
2017-01-23T08:21:26.508Z,-3.48
2017-01-23T08:22:08.218Z,-3.44
2017-01-23T08:22:48.937Z,-3.37
2017-01-23T08:23:29.595Z,-3.35
2017-01-23T08:24:10.263Z,-3.35
2017-01-23T08:24:50.997Z,-3.37
2017-01-23T08:25:31.690Z,-3.41
2017-01-23T08:26:12.397Z,-3.38
2017-01-23T08:26:52.933Z,-3.38
2017-01-23T08:27:33.603Z,-3.34
2017-01-23T08:28:14.306Z,-3.34
2017-01-23T08:28:55.009Z,-3.34
2017-01-23T08:29:35.567Z,-3.31
2017-01-23T08:30:16.343Z,-3.25
2017-01-23T08:30:57.344Z,-3.37
2017-01-23T08:31:38.032Z,-3.37
2017-01-23T08:32:18.592Z,-3.28
2017-01-23T08:32:59.257Z,-3.25
2017-01-23T08:33:39.957Z,-3.45
2017-01-23T08:34:20.640Z,-3.38
2017-01-23T08:35:01.198Z,-3.28
2017-01-23T08:35:41.876Z,-3.31
2017-01-23T08:36:22.507Z,-3.37
2017-01-23T08:37:04.395Z,-3.23
2017-01-23T08:37:45.034Z,-3.28
2017-01-23T08:38:26.715Z,-3.23
2017-01-23T08:39:08.443Z,-3.25
2017-01-23T08:39:50.177Z,-3.33
2017-01-23T08:40:30.821Z,-3.22
2017-01-23T08:41:11.411Z,-3.17
2017-01-23T08:41:52.156Z,-3.23
2017-01-23T08:42:32.785Z,-3.25
2017-01-23T08:43:13.448Z,-3.33
2017-01-23T08:43:54.212Z,-3.25
2017-01-23T08:44:34.942Z,-3.23
2017-01-23T08:45:15.510Z,-3.23
2017-01-23T08:45:57.183Z,-3.27